Historyczne dane pomiarowe

Dodano dane terminowe – wersja testowa.

Dane z okresu 1951-2019

Wersja bazy: 1.34 [2019-03-16, lista zmian], aktualizacja planowana na 2019-04-15

Dane meteo z obszaru Polski uzyskane na podstawie danych udostępnionych przez Instytut Meteorologii i Gospodarki Wodnej – Państwowy Instytut Badawczy.

 

Wybierz Datę:    

       

TemperaturaWilgotnośćWiatrCiśnienieOpadyŚniegCzas trwania zjawisk
 Stacja t tx tn tng RH VA  wxwx mslp ppp RRR   cm mm wxwxwxwxwxwxwx
2004-08-13 18.3 24.5 12.0 10.5-------- 4.1--x---------
2004-08-14 17.2 22.0 14.6 12.0-------- 22.9--x---------
2004-08-15 14.7 21.5 9.8 7.1-------- 0.0--x---------
2004-08-16 15.3 25.5 5.7 4.6-------- 0.0--x---------
2004-08-17 18.3 27.3 10.0 7.7-------- 0.0--x---------
2004-08-18 19.8 29.1 11.2 10.2-------- 0.0--x---------
2004-08-19 22.2 31.9 13.8 11.1-------- 0.0--x---------
2004-08-20 23.0 31.0 15.1 12.4-------- 0.3--x---------
2004-08-21 18.4 23.9 14.8 13.7-------- 35.2--x---------
2004-08-22 16.0 18.0 14.8 14.2-------- 11.6--x---------
2004-08-23 14.1 20.3 9.5 6.5-------- 0.0--x---------
2004-08-24 14.2 22.5 4.0 2.5-------- 4.7--x---------
2004-08-25 17.3 23.5 13.2 10.8-------- 0.0--x---------
2004-08-26 17.2 21.1 13.2 10.7-------- 13.0--x---------
2004-08-27 15.2 17.0 13.5 13.2-------- 1.2--x---------
2004-08-28 14.5 22.5 7.6 5.6-------- 0.0--x---------
2004-08-29 19.1 25.9 14.5 13.2-------- 0.0--x---------
2004-08-30 18.7 25.3 13.1 10.6-------- 0.0--x---------
2004-08-31 17.2 23.1 13.1 10.6-------- 4.2--x---------
2004-09-01 14.9 19.8 12.2 11.9-------- 0.0--x---------
2004-09-02 12.8 21.5 5.3 4.1-------- 0.0--x---------
2004-09-03 13.7 22.5 5.7 4.4-------- 0.0--x---------
2004-09-04 12.2 18.6 5.5 4.6-------- 0.0--x---------
2004-09-05 16.5 21.6 12.6 9.6-------- 0.0--x---------
2004-09-06 13.1 22.0 4.8 3.2-------- 0.0--x---------
2004-09-07 13.0 23.0 3.4 1.6-------- 0.6--x---------
2004-09-08 14.0 20.3 9.9 7.8-------- 0.3--x---------
2004-09-09 9.5 13.5 4.2 2.4-------- 0.0--x---------
2004-09-10 6.4 16.0 -2.4 -4.3-------- 0.0--x---------
2004-09-11 10.3 20.7 0.6 -1.4-------- 0.0--x---------
216.8 ms

 

Źródłem pochodzenia danych jest Instytut Meteorologii i Gospodarki Wodnej – Państwowy Instytut Badawczy. Dane Instytutu Meteorologii i Gospodarki Wodnej – Państwowego Instytutu Badawczego zostały przetworzone.

Dane źródłowe można odnaleźć na stronie https://dane.imgw.pl